createdAt,value
2022-09-04T00:01:18.992Z,8.20
2022-09-04T00:03:55.891Z,8.40
2022-09-04T00:06:32.761Z,9.15
2022-09-04T00:09:12.983Z,8.85
2022-09-04T00:12:05.825Z,9.45
2022-09-04T00:14:52.663Z,8.95
2022-09-04T00:17:41.497Z,8.65
2022-09-04T00:20:32.843Z,9.27
2022-09-04T00:23:34.130Z,9.40
2022-09-04T00:26:06.547Z,10.00
2022-09-04T00:28:40.344Z,8.25
2022-09-04T00:32:01.697Z,9.07
2022-09-04T00:35:07.314Z,9.23
2022-09-04T00:37:39.039Z,9.35
2022-09-04T00:40:32.446Z,10.43
2022-09-04T00:43:43.273Z,10.40
2022-09-04T00:46:40.428Z,10.27
2022-09-04T00:49:16.574Z,9.82
2022-09-04T00:52:23.657Z,10.15
2022-09-04T00:55:10.391Z,10.67
2022-09-04T00:57:46.067Z,9.65
2022-09-04T01:00:17.319Z,9.93
2022-09-04T01:03:19.284Z,9.90
2022-09-04T01:06:01.317Z,9.07
2022-09-04T01:08:56.472Z,10.07
2022-09-04T01:11:38.284Z,10.38
2022-09-04T01:14:31.188Z,9.77
2022-09-04T01:17:12.343Z,10.52
2022-09-04T01:19:56.324Z,9.48
2022-09-04T01:22:52.461Z,9.85
2022-09-04T01:25:43.032Z,9.82
2022-09-04T01:28:11.550Z,10.15
2022-09-04T01:30:47.336Z,9.93
2022-09-04T01:33:40.323Z,10.30
2022-09-04T01:36:20.095Z,9.83
2022-09-04T01:38:53.656Z,11.20
2022-09-04T01:41:39.070Z,9.85
2022-09-04T01:44:11.012Z,11.55
2022-09-04T01:47:05.439Z,10.57
2022-09-04T01:49:44.836Z,10.60
2022-09-04T01:52:38.753Z,10.57
2022-09-04T01:55:44.723Z,10.85
2022-09-04T01:58:41.636Z,11.60
2022-09-04T02:01:38.392Z,11.20
2022-09-04T02:04:23.452Z,11.00
2022-09-04T02:06:59.068Z,10.73
2022-09-04T02:09:36.231Z,11.18
2022-09-04T02:12:30.192Z,11.98
2022-09-04T02:15:18.385Z,11.40
2022-09-04T02:18:12.355Z,11.93
2022-09-04T02:20:46.976Z,12.13
2022-09-04T02:23:47.612Z,11.85
2022-09-04T02:26:30.129Z,12.27
2022-09-04T02:29:08.563Z,12.13
2022-09-04T02:31:54.067Z,11.83
2022-09-04T02:34:29.176Z,12.38
2022-09-04T02:37:32.195Z,12.02
2022-09-04T02:40:11.866Z,10.98
2022-09-04T02:43:20.968Z,11.98
2022-09-04T02:45:53.746Z,11.77
2022-09-04T02:48:28.307Z,11.50
2022-09-04T02:51:14.010Z,11.98
2022-09-04T02:54:02.796Z,11.65
2022-09-04T02:56:52.185Z,12.05
2022-09-04T02:59:18.795Z,11.40
2022-09-04T03:01:59.165Z,11.40
2022-09-04T03:04:43.754Z,11.30
2022-09-04T03:07:28.191Z,12.10
2022-09-04T03:10:06.920Z,11.60
2022-09-04T03:12:57.756Z,12.53
2022-09-04T03:15:39.667Z,10.85
2022-09-04T03:18:33.171Z,11.75
2022-09-04T03:25:13.074Z,11.25
2022-09-04T03:43:32.664Z,12.88
2022-09-04T03:46:29.905Z,12.43
2022-09-04T03:49:06.785Z,12.82
2022-09-04T03:52:03.512Z,14.13
2022-09-04T03:54:30.249Z,12.75
2022-09-04T03:57:14.838Z,12.80
2022-09-04T04:00:00.495Z,14.27
2022-09-04T04:02:50.699Z,13.85
2022-09-04T04:05:39.774Z,12.60
2022-09-04T04:08:33.554Z,13.75
2022-09-04T04:11:20.781Z,13.25
2022-09-04T04:14:25.434Z,13.03
2022-09-04T04:17:20.615Z,13.85
2022-09-04T04:20:03.267Z,13.52
2022-09-04T04:41:14.953Z,12.88
2022-09-04T04:43:53.349Z,14.32
2022-09-04T04:46:39.457Z,14.13
2022-09-04T04:49:26.172Z,14.02
2022-09-04T04:52:23.437Z,13.38
2022-09-04T04:55:21.267Z,12.85
2022-09-04T04:58:18.676Z,13.90
2022-09-04T05:00:53.452Z,14.37
2022-09-04T05:07:23.277Z,15.05
2022-09-04T05:10:42.762Z,14.20
2022-09-04T05:54:27.148Z,15.60
2022-09-04T05:57:43.110Z,14.90
2022-09-04T06:00:19.610Z,15.40
2022-09-04T06:03:14.904Z,16.42
2022-09-04T06:05:41.555Z,16.05
2022-09-04T06:08:32.812Z,15.53
2022-09-04T06:11:18.026Z,14.93
2022-09-04T06:14:03.325Z,15.30
2022-09-04T06:16:59.233Z,14.45
2022-09-04T06:19:25.825Z,15.20
2022-09-04T06:22:01.339Z,15.60
2022-09-04T06:25:14.414Z,17.02
2022-09-04T06:27:52.624Z,17.27
2022-09-04T06:30:19.633Z,16.52
2022-09-04T06:33:19.010Z,16.52
2022-09-04T06:36:12.448Z,14.20
2022-09-04T06:39:04.439Z,18.02
2022-09-04T06:41:46.040Z,16.58
2022-09-04T06:44:30.785Z,16.77
2022-09-04T06:47:16.161Z,16.30
2022-09-04T06:50:01.527Z,16.53
2022-09-04T06:53:03.986Z,19.45
2022-09-04T06:55:44.439Z,17.08
2022-09-04T06:58:44.692Z,17.00
2022-09-04T07:01:46.621Z,18.13
2022-09-04T07:04:36.086Z,18.40
2022-09-04T07:07:44.361Z,16.60
2022-09-04T07:10:24.045Z,16.30
2022-09-04T07:13:12.683Z,15.73
2022-09-04T07:16:03.683Z,17.20
2022-09-04T07:18:54.324Z,17.27
2022-09-04T07:21:54.570Z,16.45
2022-09-04T07:24:49.921Z,15.32
2022-09-04T07:27:44.980Z,16.70
2022-09-04T07:30:17.213Z,15.60
2022-09-04T07:33:24.472Z,17.20
2022-09-04T07:36:00.033Z,15.65
2022-09-04T07:39:04.850Z,16.33
2022-09-04T07:41:42.503Z,15.35
2022-09-04T07:44:24.400Z,16.30
2022-09-04T07:47:13.421Z,15.17
2022-09-04T07:50:07.159Z,15.20
2022-09-04T07:56:33.820Z,14.93
2022-09-04T08:02:57.736Z,16.33
2022-09-04T08:05:47.799Z,14.57
2022-09-04T08:08:53.949Z,12.98
2022-09-04T08:12:33.787Z,14.35
2022-09-04T08:19:15.662Z,14.97
2022-09-04T08:22:28.140Z,14.40
2022-09-04T08:29:35.073Z,15.20
2022-09-04T08:32:53.516Z,13.80
2022-09-04T08:35:54.291Z,14.27
2022-09-04T08:38:32.269Z,13.32
2022-09-04T08:41:21.832Z,12.55
2022-09-04T08:44:30.604Z,15.20
2022-09-04T08:46:58.233Z,12.90
2022-09-04T08:49:32.525Z,13.82
2022-09-04T08:55:49.619Z,13.85
2022-09-04T08:58:26.746Z,13.93
2022-09-04T09:01:33.707Z,13.48
2022-09-04T09:05:19.497Z,13.68
2022-09-04T09:08:18.679Z,12.10
2022-09-04T09:11:56.053Z,13.52
2022-09-04T09:48:39.104Z,8.50
2022-09-04T09:52:22.448Z,7.88
2022-09-04T09:55:40.114Z,7.03
2022-09-04T09:58:57.194Z,8.90
2022-09-04T10:31:45.946Z,4.97
2022-09-04T10:34:52.074Z,5.10
2022-09-04T10:41:48.636Z,5.05
2022-09-04T10:44:56.763Z,5.20
2022-09-04T10:51:16.037Z,5.72
2022-09-04T10:57:37.852Z,4.30
2022-09-04T11:04:09.017Z,4.35
2022-09-04T11:07:32.399Z,5.03
2022-09-04T11:10:56.315Z,5.35
2022-09-04T11:14:02.318Z,4.38
2022-09-04T11:42:37.338Z,4.72
2022-09-04T11:45:29.423Z,3.88
2022-09-04T11:51:54.489Z,4.43
2022-09-04T11:58:32.317Z,4.22
2022-09-04T12:01:43.480Z,4.97
2022-09-04T12:04:54.044Z,4.28
2022-09-04T12:08:22.296Z,3.63
2022-09-04T12:14:36.464Z,4.65
2022-09-04T12:17:31.233Z,4.30
2022-09-04T12:21:00.565Z,3.90
2022-09-04T12:23:58.862Z,5.38
2022-09-04T12:26:59.856Z,4.78
2022-09-04T12:29:38.865Z,3.60
2022-09-04T12:32:25.403Z,4.00
2022-09-04T12:35:12.971Z,4.03
2022-09-04T12:38:18.556Z,4.20
2022-09-04T12:41:09.724Z,3.08
2022-09-04T12:44:15.956Z,3.45
2022-09-04T12:47:09.786Z,3.13
2022-09-04T12:49:52.220Z,3.55
2022-09-04T12:52:53.765Z,3.20
2022-09-04T12:55:38.294Z,3.33
2022-09-04T12:58:15.589Z,3.00
2022-09-04T13:00:56.732Z,3.17
2022-09-04T13:03:38.128Z,3.17
2022-09-04T13:06:13.227Z,2.97
2022-09-04T13:08:59.050Z,2.75
2022-09-04T13:11:34.701Z,3.10
2022-09-04T13:14:10.603Z,3.45
2022-09-04T13:16:55.066Z,2.95
2022-09-04T13:19:47.321Z,3.05
2022-09-04T13:22:50.819Z,3.17
2022-09-04T13:25:59.554Z,2.42
2022-09-04T13:28:51.103Z,3.00
2022-09-04T13:31:33.305Z,3.15
2022-09-04T13:34:24.097Z,2.40
2022-09-04T13:37:48.089Z,3.13
2022-09-04T13:40:14.694Z,2.58
2022-09-04T13:43:11.087Z,3.35
2022-09-04T13:45:49.006Z,2.70
2022-09-04T13:48:42.095Z,3.08
2022-09-04T13:51:13.860Z,3.75
2022-09-04T13:54:26.662Z,2.80
2022-09-04T13:57:06.004Z,3.42
2022-09-04T13:59:33.885Z,2.53
2022-09-04T14:02:08.360Z,2.40
2022-09-04T14:04:40.434Z,2.90
2022-09-04T14:07:33.645Z,3.25
2022-09-04T14:10:04.687Z,3.05
2022-09-04T14:13:09.910Z,4.38
2022-09-04T14:15:59.890Z,3.50
2022-09-04T14:18:47.909Z,3.85
2022-09-04T14:24:51.840Z,3.47
2022-09-04T14:27:46.784Z,3.20
2022-09-04T14:30:17.007Z,3.38
2022-09-04T14:30:29.409Z,2.97
2022-09-04T14:32:58.035Z,3.30
2022-09-04T14:35:36.423Z,2.70
2022-09-04T14:38:26.219Z,3.08
2022-09-04T14:41:20.463Z,2.83
2022-09-04T14:44:06.911Z,3.20
2022-09-04T14:46:43.410Z,3.20
2022-09-04T14:49:20.118Z,3.83
2022-09-04T14:51:49.314Z,2.90
2022-09-04T14:54:29.303Z,3.05
2022-09-04T14:57:14.224Z,3.08
2022-09-04T14:59:47.125Z,3.78
2022-09-04T15:02:46.979Z,3.05
2022-09-04T15:05:25.524Z,3.13
2022-09-04T15:08:07.441Z,2.83
2022-09-04T15:10:52.201Z,2.97
2022-09-04T15:13:33.573Z,2.60
2022-09-04T15:16:20.597Z,2.80
2022-09-04T15:19:18.792Z,2.72
2022-09-04T15:22:05.497Z,3.10
2022-09-04T15:24:38.623Z,3.65
2022-09-04T15:27:28.323Z,3.17
2022-09-04T15:29:58.947Z,3.10
2022-09-04T15:32:27.642Z,3.45
2022-09-04T15:35:14.965Z,3.83
2022-09-04T15:37:48.395Z,3.75
2022-09-04T15:40:35.688Z,3.38
2022-09-04T15:43:17.523Z,3.15
2022-09-04T15:46:13.045Z,3.55
2022-09-04T15:49:07.927Z,3.03
2022-09-04T15:51:46.451Z,3.58
2022-09-04T15:54:26.971Z,3.60
2022-09-04T15:56:53.706Z,2.73
2022-09-04T15:59:24.348Z,2.97
2022-09-04T16:02:20.305Z,2.78
2022-09-04T16:05:03.300Z,2.85
2022-09-04T16:07:41.761Z,3.35
2022-09-04T16:10:10.871Z,3.22
2022-09-04T16:12:57.063Z,3.47
2022-09-04T16:15:27.018Z,2.90
2022-09-04T16:17:55.480Z,3.53
2022-09-04T16:20:36.760Z,4.15
2022-09-04T16:23:10.227Z,3.45
2022-09-04T16:25:50.260Z,2.97
2022-09-04T16:28:25.366Z,2.63
2022-09-04T16:31:02.843Z,3.38
2022-09-04T16:33:44.879Z,4.05
2022-09-04T16:36:24.943Z,3.42
2022-09-04T16:39:14.159Z,3.75
2022-09-04T16:41:52.426Z,2.22
2022-09-04T16:44:25.624Z,2.83
2022-09-04T16:47:14.955Z,2.50
2022-09-04T16:50:11.775Z,3.42
2022-09-04T16:52:41.343Z,2.33
2022-09-04T16:55:31.191Z,3.17
2022-09-04T16:58:35.328Z,2.20
2022-09-04T17:01:22.115Z,2.25
2022-09-04T17:04:04.157Z,1.88
2022-09-04T17:07:03.700Z,2.00
2022-09-04T17:09:43.877Z,2.13
2022-09-04T17:12:48.215Z,2.10
2022-09-04T17:15:30.710Z,2.22
2022-09-04T17:18:00.125Z,2.10
2022-09-04T17:24:50.456Z,2.00
2022-09-04T17:28:56.266Z,1.92
2022-09-04T17:29:17.347Z,2.50
2022-09-04T17:29:36.288Z,2.30
2022-09-04T17:34:01.629Z,2.05
2022-09-04T17:40:34.778Z,2.58
2022-09-04T17:40:54.774Z,1.70
2022-09-04T17:42:04.694Z,2.20
2022-09-04T17:45:15.771Z,2.10
2022-09-04T17:47:43.298Z,1.80
2022-09-04T17:50:16.875Z,2.40
2022-09-04T17:53:01.833Z,3.22
2022-09-04T17:55:39.022Z,2.40
2022-09-04T17:58:31.400Z,1.90
2022-09-04T18:01:17.546Z,2.25
2022-09-04T18:04:09.878Z,2.25
2022-09-04T18:06:59.395Z,1.70
2022-09-04T18:09:39.991Z,2.00
2022-09-04T18:12:31.270Z,1.60
2022-09-04T18:15:32.224Z,2.08
2022-09-04T18:18:00.828Z,2.00
2022-09-04T18:20:40.084Z,2.05
2022-09-04T18:24:07.600Z,2.40
2022-09-04T18:26:40.814Z,1.92
2022-09-04T18:33:16.181Z,2.20
2022-09-04T18:37:19.825Z,1.85
2022-09-04T18:37:24.544Z,1.83
2022-09-04T18:38:35.600Z,1.83
2022-09-04T18:47:22.224Z,1.98
2022-09-04T18:50:22.646Z,1.83
2022-09-04T18:50:44.273Z,2.30
2022-09-04T18:53:43.639Z,1.70
2022-09-04T18:56:28.812Z,1.98
2022-09-04T18:59:26.125Z,1.70
2022-09-04T19:02:13.596Z,2.13
2022-09-04T19:04:47.078Z,2.17
2022-09-04T19:07:29.974Z,2.00
2022-09-04T19:10:21.530Z,1.70
2022-09-04T19:12:56.329Z,2.53
2022-09-04T19:15:36.163Z,1.90
2022-09-04T19:18:43.514Z,1.90
2022-09-04T19:21:14.235Z,1.90
2022-09-04T19:23:50.398Z,2.63
2022-09-04T19:26:39.667Z,8.02
2022-09-04T19:29:42.648Z,2.58
2022-09-04T19:32:41.672Z,3.05
2022-09-04T19:35:17.695Z,2.28
2022-09-04T19:44:10.173Z,2.63
2022-09-04T19:46:06.078Z,2.10
2022-09-04T19:46:11.593Z,1.98
2022-09-04T19:47:27.443Z,2.35
2022-09-04T19:53:20.030Z,2.40
2022-09-04T19:53:36.040Z,2.17
2022-09-04T19:56:08.373Z,2.10
2022-09-04T19:58:39.391Z,2.13
2022-09-04T20:01:16.481Z,2.40
2022-09-04T20:03:50.163Z,2.40
2022-09-04T20:06:21.550Z,2.25
2022-09-04T20:09:18.085Z,1.80
2022-09-04T20:12:01.479Z,2.40
2022-09-04T20:14:36.888Z,1.73
2022-09-04T20:17:33.201Z,1.75
2022-09-04T20:20:05.808Z,1.70
2022-09-04T20:22:45.330Z,2.10
2022-09-04T20:25:26.967Z,1.80
2022-09-04T20:28:00.237Z,2.10
2022-09-04T20:30:28.834Z,2.00
2022-09-04T20:33:06.084Z,5.18
2022-09-04T20:36:02.212Z,2.08
2022-09-04T20:38:57.844Z,2.10
2022-09-04T20:41:55.756Z,1.90
2022-09-04T20:44:52.474Z,1.85
2022-09-04T20:52:53.682Z,2.10
2022-09-04T20:52:55.451Z,1.80
2022-09-04T20:54:06.688Z,1.98
2022-09-04T20:58:33.699Z,1.98
2022-09-04T21:03:21.498Z,1.98
2022-09-04T21:03:28.932Z,2.05
2022-09-04T21:06:17.850Z,1.88
2022-09-04T21:08:53.516Z,2.25
2022-09-04T21:11:41.202Z,2.33
2022-09-04T21:14:45.810Z,2.40
2022-09-04T21:17:56.049Z,2.03
2022-09-04T21:21:22.112Z,2.35
2022-09-04T21:24:12.224Z,2.45
2022-09-04T21:27:10.046Z,2.30
2022-09-04T21:29:57.646Z,2.00
2022-09-04T21:33:27.175Z,2.25
2022-09-04T21:36:25.842Z,2.30
2022-09-04T21:39:02.946Z,1.90
2022-09-04T21:41:51.210Z,2.40
2022-09-04T21:44:38.943Z,2.47
2022-09-04T21:47:09.016Z,2.45
2022-09-04T21:50:22.981Z,2.72
2022-09-04T21:53:17.170Z,2.47
2022-09-04T22:00:16.103Z,2.72
2022-09-04T22:02:40.790Z,2.80
2022-09-04T22:02:59.239Z,2.78
2022-09-04T22:06:09.262Z,2.85
2022-09-04T22:13:31.083Z,2.92
2022-09-04T22:13:39.072Z,3.40
2022-09-04T22:14:37.176Z,3.00
2022-09-04T22:17:03.725Z,3.83
2022-09-04T22:19:48.953Z,3.60
2022-09-04T22:22:34.359Z,4.07
2022-09-04T22:25:18.884Z,3.22
2022-09-04T22:28:22.991Z,4.18
2022-09-04T22:31:29.477Z,4.93
2022-09-04T22:34:17.349Z,4.85
2022-09-04T22:37:06.078Z,4.57
2022-09-04T22:40:17.265Z,3.00
2022-09-04T22:42:58.559Z,3.72
2022-09-04T22:45:43.639Z,4.03
2022-09-04T22:48:10.206Z,4.88
2022-09-04T22:51:14.395Z,4.05
2022-09-04T22:54:00.180Z,4.82
2022-09-04T22:56:45.953Z,4.80
2022-09-04T22:59:56.819Z,4.82
2022-09-04T23:03:09.638Z,5.32
2022-09-04T23:05:39.834Z,4.93
2022-09-04T23:13:42.023Z,5.40
2022-09-04T23:13:58.886Z,4.70
2022-09-04T23:14:33.956Z,4.28
2022-09-04T23:17:33.772Z,4.45
2022-09-04T23:26:37.835Z,4.47
2022-09-04T23:26:38.100Z,4.65
2022-09-04T23:27:12.327Z,4.55
2022-09-04T23:29:53.941Z,4.93
2022-09-04T23:32:57.565Z,4.80
2022-09-04T23:35:37.525Z,5.07
2022-09-04T23:38:19.993Z,5.25
2022-09-04T23:41:05.136Z,5.32
2022-09-04T23:44:33.079Z,5.20
2022-09-04T23:47:47.108Z,5.50
2022-09-04T23:50:12.339Z,5.07
2022-09-04T23:52:59.754Z,4.80
2022-09-04T23:55:50.215Z,5.40
2022-09-04T23:58:51.493Z,4.80
